createdAt,value
2022-12-09T00:01:53.498Z,98.49
2022-12-09T00:04:58.434Z,97.98
2022-12-09T00:08:04.612Z,97.81
2022-12-09T00:11:10.196Z,96.57
2022-12-09T00:14:16.251Z,96.62
2022-12-09T00:17:22.770Z,97.09
2022-12-09T00:20:28.898Z,96.95
2022-12-09T00:23:34.639Z,96.89
2022-12-09T00:26:39.973Z,96.87
2022-12-09T00:29:45.627Z,96.29
2022-12-09T00:32:50.634Z,96.16
2022-12-09T00:35:56.503Z,96.67
2022-12-09T00:39:01.552Z,95.92
2022-12-09T00:42:06.915Z,96.13
2022-12-09T00:45:15.077Z,96.06
2022-12-09T00:48:20.518Z,95.66
2022-12-09T00:51:30.065Z,95.58
2022-12-09T00:54:35.388Z,95.59
2022-12-09T00:57:40.191Z,96.48
2022-12-09T01:00:46.881Z,97.04
2022-12-09T01:03:51.470Z,97.42
2022-12-09T01:06:58.739Z,97.97
2022-12-09T01:10:06.388Z,98.62
2022-12-09T01:13:12.572Z,99.40
2022-12-09T01:16:11.686Z,99.14
2022-12-09T01:19:21.341Z,98.91
2022-12-09T01:22:26.522Z,99.40
2022-12-09T01:25:33.115Z,100.00
2022-12-09T01:28:39.572Z,100.00
2022-12-09T01:31:48.174Z,100.00
2022-12-09T01:34:54.349Z,100.00
2022-12-09T01:37:59.325Z,100.00
2022-12-09T01:41:03.893Z,100.00
2022-12-09T01:44:38.270Z,100.00
2022-12-09T01:47:44.517Z,100.00
2022-12-09T01:50:50.635Z,100.00
2022-12-09T01:54:00.171Z,100.00
2022-12-09T01:57:05.577Z,100.00
2022-12-09T02:00:11.489Z,100.00
2022-12-09T02:03:18.849Z,100.00
2022-12-09T02:06:23.982Z,100.00
2022-12-09T02:09:30.575Z,100.00
2022-12-09T02:12:40.993Z,100.00
2022-12-09T02:15:53.838Z,100.00
2022-12-09T02:19:04.318Z,100.00
2022-12-09T02:22:12.687Z,100.00
2022-12-09T02:25:41.922Z,100.00
2022-12-09T02:29:27.651Z,100.00
2022-12-09T02:32:57.822Z,100.00
2022-12-09T02:36:17.358Z,100.00
2022-12-09T02:39:24.575Z,100.00
2022-12-09T02:42:32.459Z,100.00
2022-12-09T02:45:39.738Z,100.00
2022-12-09T02:48:53.135Z,100.00
2022-12-09T02:51:52.643Z,100.00
2022-12-09T02:54:59.296Z,100.00
2022-12-09T02:58:06.695Z,100.00
2022-12-09T03:01:12.119Z,100.00
2022-12-09T03:04:17.971Z,100.00
2022-12-09T03:07:36.533Z,100.00
2022-12-09T03:11:07.726Z,100.00
2022-12-09T03:14:33.597Z,100.00
2022-12-09T03:17:50.890Z,100.00
2022-12-09T03:20:56.810Z,100.00
2022-12-09T03:24:02.555Z,100.00
2022-12-09T03:27:09.142Z,100.00
2022-12-09T03:30:14.337Z,100.00
2022-12-09T03:33:21.369Z,100.00
2022-12-09T03:36:27.068Z,100.00
2022-12-09T03:39:34.150Z,100.00
2022-12-09T03:42:47.960Z,100.00
2022-12-09T03:45:55.597Z,100.00
2022-12-09T03:48:56.419Z,100.00
2022-12-09T03:51:56.737Z,100.00
2022-12-09T03:54:56.085Z,100.00
2022-12-09T03:58:02.929Z,100.00
2022-12-09T04:01:09.011Z,100.00
2022-12-09T04:04:15.467Z,100.00
2022-12-09T04:07:20.749Z,100.00
2022-12-09T04:10:26.122Z,100.00
2022-12-09T04:13:31.539Z,100.00
2022-12-09T04:16:37.298Z,100.00
2022-12-09T04:19:42.757Z,100.00
2022-12-09T04:22:49.175Z,100.00
2022-12-09T04:25:54.278Z,100.00
2022-12-09T04:28:59.084Z,100.00
2022-12-09T04:32:04.589Z,100.00
2022-12-09T04:35:10.164Z,100.00
2022-12-09T04:38:18.488Z,100.00
2022-12-09T04:41:25.992Z,100.00
2022-12-09T04:44:31.644Z,100.00
2022-12-09T04:47:37.504Z,100.00
2022-12-09T04:50:43.126Z,100.00
2022-12-09T04:53:48.814Z,100.00
2022-12-09T04:56:54.240Z,100.00
2022-12-09T05:00:00.718Z,100.00
2022-12-09T05:03:05.944Z,100.00
2022-12-09T05:06:13.366Z,100.00
2022-12-09T05:09:18.473Z,100.00
2022-12-09T05:12:24.773Z,100.00
2022-12-09T05:15:29.920Z,100.00
2022-12-09T05:18:36.110Z,100.00
2022-12-09T05:21:42.282Z,100.00
2022-12-09T05:24:50.426Z,100.00
2022-12-09T05:27:56.151Z,100.00
2022-12-09T05:31:01.790Z,100.00
2022-12-09T05:34:08.614Z,100.00
2022-12-09T05:37:14.734Z,100.00
2022-12-09T05:40:16.087Z,100.00
2022-12-09T05:43:21.735Z,100.00
2022-12-09T05:46:28.192Z,100.00
2022-12-09T05:49:34.649Z,100.00
2022-12-09T05:52:40.337Z,100.00
2022-12-09T05:55:45.783Z,100.00
2022-12-09T05:58:52.281Z,100.00
2022-12-09T06:01:57.561Z,100.00
2022-12-09T06:05:03.222Z,100.00
2022-12-09T06:07:58.240Z,100.00
2022-12-09T06:11:04.109Z,100.00
2022-12-09T06:14:10.163Z,100.00
2022-12-09T06:17:15.950Z,100.00
2022-12-09T06:20:22.261Z,100.00
2022-12-09T06:23:28.243Z,100.00
2022-12-09T06:26:41.166Z,100.00
2022-12-09T06:29:46.853Z,100.00
2022-12-09T06:32:52.858Z,100.00
2022-12-09T06:35:58.910Z,100.00
2022-12-09T06:39:10.204Z,100.00
2022-12-09T06:42:12.521Z,100.00
2022-12-09T06:45:18.686Z,100.00
2022-12-09T06:48:18.059Z,100.00
2022-12-09T06:51:21.647Z,100.00
2022-12-09T06:54:26.736Z,100.00
2022-12-09T06:57:32.896Z,100.00
2022-12-09T07:00:39.200Z,100.00
2022-12-09T07:03:45.746Z,100.00
2022-12-09T07:06:56.574Z,100.00
2022-12-09T07:10:02.176Z,99.54
2022-12-09T07:13:09.174Z,99.05
2022-12-09T07:16:16.573Z,100.00
2022-12-09T07:19:23.197Z,100.00
2022-12-09T07:22:29.594Z,100.00
2022-12-09T07:25:40.741Z,100.00
2022-12-09T07:28:48.957Z,100.00
2022-12-09T07:31:55.622Z,99.63
2022-12-09T07:35:02.280Z,100.00
2022-12-09T07:38:09.785Z,100.00
2022-12-09T07:41:26.569Z,100.00
2022-12-09T07:44:35.752Z,100.00
2022-12-09T07:47:42.465Z,100.00
2022-12-09T07:50:48.548Z,99.37
2022-12-09T07:53:54.186Z,98.62
2022-12-09T07:56:55.334Z,98.65
2022-12-09T08:00:04.818Z,98.80
2022-12-09T08:03:10.329Z,99.61
2022-12-09T08:06:16.430Z,99.29
2022-12-09T08:09:25.457Z,100.00
2022-12-09T08:12:30.775Z,100.00
2022-12-09T08:15:37.096Z,99.36
2022-12-09T08:18:42.286Z,98.97
2022-12-09T08:21:52.966Z,99.14
2022-12-09T08:24:55.197Z,98.45
2022-12-09T08:27:54.309Z,97.72
2022-12-09T08:31:01.101Z,97.65
2022-12-09T08:34:06.403Z,96.57
2022-12-09T08:37:13.952Z,95.90
2022-12-09T08:40:19.197Z,95.02
2022-12-09T08:43:25.188Z,94.69
2022-12-09T08:46:30.814Z,95.29
2022-12-09T08:49:37.468Z,98.61
2022-12-09T08:52:43.728Z,97.78
2022-12-09T08:55:50.322Z,97.26
2022-12-09T08:58:56.472Z,97.29
2022-12-09T09:02:03.163Z,97.04
2022-12-09T09:05:10.659Z,97.71
2022-12-09T09:08:18.350Z,97.89
2022-12-09T09:11:30.782Z,97.53
2022-12-09T09:14:36.366Z,96.37
2022-12-09T09:17:49.887Z,96.39
2022-12-09T09:20:53.136Z,96.96
2022-12-09T09:23:52.640Z,97.48
2022-12-09T09:26:39.407Z,97.48
2022-12-09T09:29:32.522Z,96.53
2022-12-09T09:32:26.420Z,96.50
2022-12-09T09:35:32.360Z,95.49
2022-12-09T09:38:41.026Z,95.40
2022-12-09T09:42:15.942Z,94.26
2022-12-09T09:45:26.941Z,94.73
2022-12-09T09:48:44.182Z,96.49
2022-12-09T09:51:51.303Z,96.11
2022-12-09T09:54:49.557Z,96.06
2022-12-09T09:57:52.397Z,96.65
2022-12-09T10:01:26.731Z,96.07
2022-12-09T10:04:43.505Z,95.75
2022-12-09T10:08:02.103Z,95.17
2022-12-09T10:15:25.896Z,94.21
2022-12-09T10:18:42.248Z,93.45
2022-12-09T10:21:42.495Z,93.06
2022-12-09T10:24:48.604Z,91.94
2022-12-09T10:28:05.828Z,91.97
2022-12-09T10:31:12.169Z,92.30
2022-12-09T10:34:17.736Z,91.90
2022-12-09T10:37:47.278Z,91.10
2022-12-09T10:41:04.400Z,91.30
2022-12-09T10:44:09.688Z,92.05
2022-12-09T10:47:23.943Z,92.34
2022-12-09T10:50:48.493Z,91.81
2022-12-09T10:54:00.152Z,91.68
2022-12-09T10:57:30.528Z,91.22
2022-12-09T11:00:35.137Z,91.00
2022-12-09T11:03:49.249Z,91.93
2022-12-09T11:06:59.330Z,92.00
2022-12-09T11:10:05.681Z,91.30
2022-12-09T11:13:18.916Z,90.31
2022-12-09T11:16:25.370Z,89.92
2022-12-09T11:19:32.517Z,89.34
2022-12-09T11:22:47.545Z,87.99
2022-12-09T11:25:53.970Z,88.43
2022-12-09T11:29:00.939Z,88.23
2022-12-09T11:32:08.040Z,89.59
2022-12-09T11:35:14.456Z,90.18
2022-12-09T11:45:07.208Z,89.44
2022-12-09T11:45:44.189Z,87.50
2022-12-09T11:48:48.794Z,87.10
2022-12-09T11:51:57.628Z,88.48
2022-12-09T11:55:30.442Z,88.67
2022-12-09T11:58:36.737Z,88.68
2022-12-09T12:01:31.115Z,89.44
2022-12-09T12:04:27.427Z,91.21
2022-12-09T12:07:30.458Z,90.59
2022-12-09T12:10:46.542Z,88.61
2022-12-09T12:13:56.687Z,87.84
2022-12-09T12:17:16.146Z,87.09
2022-12-09T12:20:25.541Z,87.40
2022-12-09T12:23:56.792Z,87.39
2022-12-09T12:27:31.785Z,88.76
2022-12-09T12:30:47.360Z,88.83
2022-12-09T12:34:28.039Z,87.49
2022-12-09T12:37:41.448Z,86.98
2022-12-09T12:41:16.949Z,86.53
2022-12-09T12:45:01.994Z,86.04
2022-12-09T12:48:13.386Z,86.31
2022-12-09T12:51:25.827Z,85.83
2022-12-09T12:54:57.342Z,86.44
2022-12-09T12:58:13.764Z,84.86
2022-12-09T13:01:39.284Z,85.13
2022-12-09T13:04:55.771Z,84.25
2022-12-09T13:08:14.452Z,84.73
2022-12-09T13:12:00.875Z,85.38
2022-12-09T13:15:09.276Z,84.39
2022-12-09T13:18:25.310Z,84.47
2022-12-09T13:21:29.972Z,85.00
2022-12-09T13:25:21.541Z,84.87
2022-12-09T13:28:37.366Z,84.20
2022-12-09T13:31:47.156Z,86.45
2022-12-09T13:34:56.809Z,87.08
2022-12-09T13:38:07.787Z,84.49
2022-12-09T13:41:13.704Z,84.35
2022-12-09T13:44:27.913Z,84.80
2022-12-09T13:47:47.900Z,85.92
2022-12-09T13:51:06.384Z,85.86
2022-12-09T13:54:16.876Z,86.24
2022-12-09T13:57:26.553Z,85.97
2022-12-09T14:00:32.926Z,85.33
2022-12-09T14:03:44.252Z,85.28
2022-12-09T14:07:10.650Z,83.90
2022-12-09T14:10:15.443Z,83.88
2022-12-09T14:13:37.543Z,83.71
2022-12-09T14:16:47.148Z,83.39
2022-12-09T14:20:06.693Z,83.70
2022-12-09T14:23:23.658Z,83.19
2022-12-09T14:26:29.170Z,83.58
2022-12-09T14:30:03.744Z,82.96
2022-12-09T14:33:09.368Z,83.02
2022-12-09T14:36:34.027Z,82.39
2022-12-09T14:39:46.012Z,82.96
2022-12-09T14:43:01.985Z,82.79
2022-12-09T14:46:16.250Z,83.05
2022-12-09T14:49:48.329Z,83.43
2022-12-09T14:52:47.439Z,85.54
2022-12-09T14:55:55.336Z,87.27
2022-12-09T14:59:04.408Z,87.83
2022-12-09T15:02:15.188Z,87.91
2022-12-09T15:05:25.897Z,87.47
2022-12-09T15:08:54.842Z,86.98
2022-12-09T15:12:00.472Z,86.82
2022-12-09T15:15:13.825Z,85.98
2022-12-09T15:18:30.836Z,86.28
2022-12-09T15:21:44.720Z,85.22
2022-12-09T15:24:51.256Z,85.29
2022-12-09T15:27:59.858Z,87.08
2022-12-09T15:31:21.010Z,87.54
2022-12-09T15:34:33.422Z,86.73
2022-12-09T15:37:42.812Z,87.08
2022-12-09T15:40:50.399Z,86.41
2022-12-09T15:43:55.664Z,85.88
2022-12-09T15:47:03.312Z,87.73
2022-12-09T15:50:34.754Z,88.56
2022-12-09T15:53:53.778Z,88.10
2022-12-09T15:57:13.293Z,87.03
2022-12-09T16:00:20.237Z,87.49
2022-12-09T16:03:25.700Z,89.01
2022-12-09T16:06:32.572Z,89.16
2022-12-09T16:09:38.269Z,88.20
2022-12-09T16:12:44.429Z,87.20
2022-12-09T16:16:02.851Z,86.55
2022-12-09T16:19:09.531Z,87.07
2022-12-09T16:22:39.698Z,85.85
2022-12-09T16:25:52.758Z,86.45
2022-12-09T16:28:58.744Z,85.25
2022-12-09T16:32:31.260Z,86.03
2022-12-09T16:35:50.873Z,86.08
2022-12-09T16:38:57.270Z,87.50
2022-12-09T16:42:11.304Z,88.08
2022-12-09T16:45:53.192Z,87.77
2022-12-09T16:49:04.437Z,88.00
2022-12-09T16:52:05.724Z,88.08
2022-12-09T16:55:10.840Z,87.78
2022-12-09T16:58:17.907Z,88.26
2022-12-09T17:01:26.465Z,88.41
2022-12-09T17:04:43.403Z,87.12
2022-12-09T17:07:48.730Z,86.81
2022-12-09T17:10:54.345Z,87.14
2022-12-09T17:14:00.118Z,86.54
2022-12-09T17:17:05.711Z,85.98
2022-12-09T17:20:11.359Z,85.92
2022-12-09T17:23:18.554Z,86.07
2022-12-09T17:26:27.105Z,86.97
2022-12-09T17:29:32.950Z,86.18
2022-12-09T17:32:41.342Z,86.46
2022-12-09T17:35:50.300Z,85.39
2022-12-09T17:38:54.827Z,83.97
2022-12-09T17:41:59.462Z,85.47
2022-12-09T17:45:04.807Z,86.07
2022-12-09T17:48:09.868Z,85.20
2022-12-09T17:51:24.582Z,85.47
2022-12-09T17:54:29.678Z,77.90
2022-12-09T17:57:35.853Z,76.65
2022-12-09T18:00:41.746Z,78.88
2022-12-09T18:03:56.417Z,77.65
2022-12-09T18:06:56.964Z,77.94
2022-12-09T18:10:01.621Z,78.63
2022-12-09T18:13:06.651Z,78.55
2022-12-09T18:16:13.509Z,78.07
2022-12-09T18:19:23.363Z,78.22
2022-12-09T18:22:28.871Z,77.53
2022-12-09T18:25:34.312Z,77.78
2022-12-09T18:28:39.626Z,78.20
2022-12-09T18:31:37.183Z,78.92
2022-12-09T18:34:30.088Z,77.97
2022-12-09T18:37:28.623Z,78.08
2022-12-09T18:40:24.895Z,77.83
2022-12-09T18:43:29.688Z,78.05
2022-12-09T18:46:36.851Z,78.20
2022-12-09T18:49:43.636Z,78.70
2022-12-09T18:52:51.169Z,79.38
2022-12-09T18:55:56.754Z,79.61
2022-12-09T18:59:07.421Z,79.61
2022-12-09T19:02:09.379Z,78.79
2022-12-09T19:05:13.840Z,78.37
2022-12-09T19:08:20.879Z,78.66
2022-12-09T19:11:25.929Z,78.67
2022-12-09T19:14:33.520Z,78.79
2022-12-09T19:17:39.654Z,78.49
2022-12-09T19:20:38.511Z,78.11
2022-12-09T19:23:47.901Z,79.63
2022-12-09T19:26:53.942Z,80.13
2022-12-09T19:30:00.244Z,79.12
2022-12-09T19:33:05.482Z,77.00
2022-12-09T19:36:11.595Z,78.01
2022-12-09T19:39:17.618Z,79.43
2022-12-09T19:42:23.171Z,79.33
2022-12-09T19:45:28.008Z,79.09
2022-12-09T19:48:33.611Z,77.36
2022-12-09T19:51:32.433Z,76.51
2022-12-09T19:54:38.404Z,77.32
2022-12-09T19:57:42.629Z,77.45
2022-12-09T20:00:49.420Z,76.85
2022-12-09T20:03:55.686Z,76.69
2022-12-09T20:07:04.973Z,77.00
2022-12-09T20:10:00.920Z,77.35
2022-12-09T20:13:07.589Z,76.47
2022-12-09T20:16:18.263Z,76.65
2022-12-09T20:19:25.145Z,77.48
2022-12-09T20:22:30.262Z,77.26
2022-12-09T20:25:35.544Z,77.00
2022-12-09T20:28:41.147Z,77.36
2022-12-09T20:31:47.756Z,77.26
2022-12-09T20:34:56.163Z,76.49
2022-12-09T20:38:00.944Z,77.03
2022-12-09T20:41:05.943Z,77.08
2022-12-09T20:44:13.377Z,76.48
2022-12-09T20:47:18.629Z,76.83
2022-12-09T20:50:25.789Z,77.63
2022-12-09T20:53:31.063Z,76.76
2022-12-09T20:56:37.778Z,77.31
2022-12-09T20:59:44.071Z,76.35
2022-12-09T21:02:49.739Z,74.89
2022-12-09T21:05:55.920Z,73.86
2022-12-09T21:09:00.874Z,73.52
2022-12-09T21:12:07.325Z,75.34
2022-12-09T21:15:12.630Z,75.10
2022-12-09T21:18:18.051Z,74.92
2022-12-09T21:21:24.783Z,74.92
2022-12-09T21:24:31.326Z,76.18
2022-12-09T21:27:37.440Z,76.58
2022-12-09T21:30:42.351Z,77.21
2022-12-09T21:33:48.497Z,75.85
2022-12-09T21:36:50.414Z,73.97
2022-12-09T21:39:43.797Z,74.30
2022-12-09T21:42:49.207Z,74.33
2022-12-09T21:45:54.152Z,75.40
2022-12-09T21:49:04.090Z,75.93
2022-12-09T21:52:08.609Z,76.73
2022-12-09T21:55:14.024Z,77.18
2022-12-09T21:58:18.887Z,78.18
2022-12-09T22:01:29.699Z,78.34
2022-12-09T22:04:35.103Z,78.45
2022-12-09T22:07:40.342Z,77.98
